sensor_id;sensor_type;location;lat;lon;timestamp;P1;durP1;ratioP1;P2;durP2;ratioP2
17564;SDS011;62994;52.126;5.596;2023-07-29T00:00:45;1.90;;;1.80;;
17564;SDS011;62994;52.126;5.596;2023-07-29T00:03:13;2.20;;;1.98;;
17564;SDS011;62994;52.126;5.596;2023-07-29T00:05:40;1.83;;;1.83;;
17564;SDS011;62994;52.126;5.596;2023-07-29T00:08:07;1.83;;;1.80;;
17564;SDS011;62994;52.126;5.596;2023-07-29T00:10:36;2.00;;;1.90;;
17564;SDS011;62994;52.126;5.596;2023-07-29T00:13:04;2.00;;;1.90;;
17564;SDS011;62994;52.126;5.596;2023-07-29T00:15:31;1.60;;;1.60;;
17564;SDS011;62994;52.126;5.596;2023-07-29T00:17:58;1.90;;;1.80;;
17564;SDS011;62994;52.126;5.596;2023-07-29T00:20:25;1.67;;;1.60;;
17564;SDS011;62994;52.126;5.596;2023-07-29T00:22:52;2.03;;;1.92;;
17564;SDS011;62994;52.126;5.596;2023-07-29T00:25:20;2.00;;;1.90;;
17564;SDS011;62994;52.126;5.596;2023-07-29T00:27:48;2.03;;;1.92;;
17564;SDS011;62994;52.126;5.596;2023-07-29T00:30:15;1.77;;;1.67;;
17564;SDS011;62994;52.126;5.596;2023-07-29T00:32:43;1.83;;;1.70;;
17564;SDS011;62994;52.126;5.596;2023-07-29T00:35:10;1.50;;;1.50;;
17564;SDS011;62994;52.126;5.596;2023-07-29T00:37:37;2.00;;;1.90;;
17564;SDS011;62994;52.126;5.596;2023-07-29T00:40:06;1.70;;;1.60;;
17564;SDS011;62994;52.126;5.596;2023-07-29T00:42:40;1.70;;;1.60;;
17564;SDS011;62994;52.126;5.596;2023-07-29T00:45:09;1.75;;;1.65;;
17564;SDS011;62994;52.126;5.596;2023-07-29T00:47:36;1.60;;;1.60;;
17564;SDS011;62994;52.126;5.596;2023-07-29T00:50:04;1.77;;;1.73;;
17564;SDS011;62994;52.126;5.596;2023-07-29T00:52:32;1.73;;;1.63;;
17564;SDS011;62994;52.126;5.596;2023-07-29T00:54:59;1.70;;;1.60;;
17564;SDS011;62994;52.126;5.596;2023-07-29T00:57:27;2.25;;;2.15;;
17564;SDS011;62994;52.126;5.596;2023-07-29T00:59:56;3.13;;;1.73;;
17564;SDS011;62994;52.126;5.596;2023-07-29T01:02:25;1.73;;;1.70;;
17564;SDS011;62994;52.126;5.596;2023-07-29T01:04:55;2.10;;;2.00;;
17564;SDS011;62994;52.126;5.596;2023-07-29T01:07:26;1.73;;;1.63;;
17564;SDS011;62994;52.126;5.596;2023-07-29T01:10:00;1.90;;;1.80;;
17564;SDS011;62994;52.126;5.596;2023-07-29T01:12:34;1.95;;;1.85;;
17564;SDS011;62994;52.126;5.596;2023-07-29T01:15:08;2.10;;;2.00;;
17564;SDS011;62994;52.126;5.596;2023-07-29T01:17:47;4.03;;;1.92;;
17564;SDS011;62994;52.126;5.596;2023-07-29T01:20:18;2.00;;;1.90;;
17564;SDS011;62994;52.126;5.596;2023-07-29T01:22:47;2.45;;;1.90;;
17564;SDS011;62994;52.126;5.596;2023-07-29T01:25:16;1.75;;;1.73;;
17564;SDS011;62994;52.126;5.596;2023-07-29T01:27:45;2.10;;;1.90;;
17564;SDS011;62994;52.126;5.596;2023-07-29T01:30:13;2.03;;;1.92;;
17564;SDS011;62994;52.126;5.596;2023-07-29T01:32:48;2.00;;;1.90;;
17564;SDS011;62994;52.126;5.596;2023-07-29T01:35:22;2.47;;;2.28;;
17564;SDS011;62994;52.126;5.596;2023-07-29T01:37:53;2.55;;;2.35;;
17564;SDS011;62994;52.126;5.596;2023-07-29T01:40:24;2.35;;;2.25;;
17564;SDS011;62994;52.126;5.596;2023-07-29T01:42:54;2.75;;;2.55;;
17564;SDS011;62994;52.126;5.596;2023-07-29T01:45:22;2.90;;;2.03;;
17564;SDS011;62994;52.126;5.596;2023-07-29T01:47:55;2.88;;;2.42;;
17564;SDS011;62994;52.126;5.596;2023-07-29T01:50:23;2.55;;;2.42;;
17564;SDS011;62994;52.126;5.596;2023-07-29T01:52:50;2.65;;;2.10;;
17564;SDS011;62994;52.126;5.596;2023-07-29T01:55:17;2.50;;;2.40;;
17564;SDS011;62994;52.126;5.596;2023-07-29T01:57:46;3.20;;;2.50;;
17564;SDS011;62994;52.126;5.596;2023-07-29T02:00:13;2.28;;;2.17;;
17564;SDS011;62994;52.126;5.596;2023-07-29T02:02:41;3.33;;;2.10;;
17564;SDS011;62994;52.126;5.596;2023-07-29T02:05:08;2.75;;;2.65;;
17564;SDS011;62994;52.126;5.596;2023-07-29T02:07:35;3.33;;;3.13;;
17564;SDS011;62994;52.126;5.596;2023-07-29T02:10:02;2.60;;;2.40;;
17564;SDS011;62994;52.126;5.596;2023-07-29T02:12:30;2.78;;;2.42;;
17564;SDS011;62994;52.126;5.596;2023-07-29T02:14:58;3.30;;;3.00;;
17564;SDS011;62994;52.126;5.596;2023-07-29T02:17:25;3.10;;;2.80;;
17564;SDS011;62994;52.126;5.596;2023-07-29T02:19:52;3.10;;;2.90;;
17564;SDS011;62994;52.126;5.596;2023-07-29T02:22:19;3.90;;;3.63;;
17564;SDS011;62994;52.126;5.596;2023-07-29T02:24:46;4.47;;;3.08;;
17564;SDS011;62994;52.126;5.596;2023-07-29T02:27:14;3.65;;;3.38;;
17564;SDS011;62994;52.126;5.596;2023-07-29T02:29:41;3.90;;;3.60;;
17564;SDS011;62994;52.126;5.596;2023-07-29T02:32:09;3.00;;;2.80;;
17564;SDS011;62994;52.126;5.596;2023-07-29T02:34:36;6.35;;;3.30;;
17564;SDS011;62994;52.126;5.596;2023-07-29T02:37:03;9.57;;;3.97;;
17564;SDS011;62994;52.126;5.596;2023-07-29T02:39:31;3.97;;;3.63;;
17564;SDS011;62994;52.126;5.596;2023-07-29T02:41:58;5.10;;;3.80;;
17564;SDS011;62994;52.126;5.596;2023-07-29T02:44:25;5.97;;;3.58;;
17564;SDS011;62994;52.126;5.596;2023-07-29T02:46:52;3.55;;;3.35;;
17564;SDS011;62994;52.126;5.596;2023-07-29T02:49:22;4.43;;;3.60;;
17564;SDS011;62994;52.126;5.596;2023-07-29T02:51:49;4.18;;;3.95;;
17564;SDS011;62994;52.126;5.596;2023-07-29T02:54:16;4.68;;;3.50;;
17564;SDS011;62994;52.126;5.596;2023-07-29T02:56:43;5.97;;;3.63;;
17564;SDS011;62994;52.126;5.596;2023-07-29T02:59:10;5.10;;;4.18;;
17564;SDS011;62994;52.126;5.596;2023-07-29T03:01:37;4.22;;;3.92;;
17564;SDS011;62994;52.126;5.596;2023-07-29T03:04:04;4.20;;;4.00;;
17564;SDS011;62994;52.126;5.596;2023-07-29T03:06:32;5.35;;;4.07;;
17564;SDS011;62994;52.126;5.596;2023-07-29T03:08:59;4.28;;;3.97;;
17564;SDS011;62994;52.126;5.596;2023-07-29T03:11:26;4.45;;;4.15;;
17564;SDS011;62994;52.126;5.596;2023-07-29T03:13:53;4.30;;;4.05;;
17564;SDS011;62994;52.126;5.596;2023-07-29T03:16:21;3.97;;;3.67;;
17564;SDS011;62994;52.126;5.596;2023-07-29T03:18:48;5.38;;;4.30;;
17564;SDS011;62994;52.126;5.596;2023-07-29T03:21:16;4.63;;;4.03;;
17564;SDS011;62994;52.126;5.596;2023-07-29T03:23:44;4.20;;;3.90;;
17564;SDS011;62994;52.126;5.596;2023-07-29T03:26:11;3.95;;;3.75;;
17564;SDS011;62994;52.126;5.596;2023-07-29T03:28:38;5.32;;;3.88;;
17564;SDS011;62994;52.126;5.596;2023-07-29T03:31:06;4.07;;;3.88;;
17564;SDS011;62994;52.126;5.596;2023-07-29T03:33:34;3.38;;;3.20;;
17564;SDS011;62994;52.126;5.596;2023-07-29T03:36:01;4.63;;;3.70;;
17564;SDS011;62994;52.126;5.596;2023-07-29T03:38:28;3.80;;;3.60;;
17564;SDS011;62994;52.126;5.596;2023-07-29T03:40:57;3.78;;;3.47;;
17564;SDS011;62994;52.126;5.596;2023-07-29T03:43:24;3.42;;;3.22;;
17564;SDS011;62994;52.126;5.596;2023-07-29T03:45:51;4.15;;;3.65;;
17564;SDS011;62994;52.126;5.596;2023-07-29T03:48:18;3.50;;;3.30;;
17564;SDS011;62994;52.126;5.596;2023-07-29T03:50:45;4.57;;;3.63;;
17564;SDS011;62994;52.126;5.596;2023-07-29T03:53:12;3.90;;;3.58;;
17564;SDS011;62994;52.126;5.596;2023-07-29T03:55:39;4.78;;;3.63;;
17564;SDS011;62994;52.126;5.596;2023-07-29T03:58:07;4.10;;;3.80;;
17564;SDS011;62994;52.126;5.596;2023-07-29T04:00:34;3.92;;;3.63;;
17564;SDS011;62994;52.126;5.596;2023-07-29T04:03:01;4.03;;;3.80;;
17564;SDS011;62994;52.126;5.596;2023-07-29T04:05:28;3.88;;;3.58;;
17564;SDS011;62994;52.126;5.596;2023-07-29T04:07:56;3.83;;;3.60;;
17564;SDS011;62994;52.126;5.596;2023-07-29T04:10:23;3.72;;;3.42;;
17564;SDS011;62994;52.126;5.596;2023-07-29T04:12:50;4.82;;;3.60;;
17564;SDS011;62994;52.126;5.596;2023-07-29T04:15:18;4.78;;;3.08;;
17564;SDS011;62994;52.126;5.596;2023-07-29T04:17:45;3.63;;;3.33;;
17564;SDS011;62994;52.126;5.596;2023-07-29T04:20:12;4.60;;;2.92;;
17564;SDS011;62994;52.126;5.596;2023-07-29T04:22:39;3.90;;;3.60;;
17564;SDS011;62994;52.126;5.596;2023-07-29T04:25:06;3.30;;;3.00;;
17564;SDS011;62994;52.126;5.596;2023-07-29T04:27:34;4.75;;;3.83;;
17564;SDS011;62994;52.126;5.596;2023-07-29T04:30:01;3.20;;;3.00;;
17564;SDS011;62994;52.126;5.596;2023-07-29T04:32:29;3.30;;;3.00;;
17564;SDS011;62994;52.126;5.596;2023-07-29T04:34:56;3.67;;;2.97;;
17564;SDS011;62994;52.126;5.596;2023-07-29T04:37:23;3.33;;;3.13;;
17564;SDS011;62994;52.126;5.596;2023-07-29T04:39:50;4.45;;;3.05;;
17564;SDS011;62994;52.126;5.596;2023-07-29T04:42:17;4.82;;;3.10;;
17564;SDS011;62994;52.126;5.596;2023-07-29T04:44:44;2.60;;;2.50;;
17564;SDS011;62994;52.126;5.596;2023-07-29T04:47:11;3.55;;;3.17;;
17564;SDS011;62994;52.126;5.596;2023-07-29T04:49:39;4.13;;;2.72;;
17564;SDS011;62994;52.126;5.596;2023-07-29T04:52:06;2.92;;;2.72;;
17564;SDS011;62994;52.126;5.596;2023-07-29T04:54:34;2.83;;;2.67;;
17564;SDS011;62994;52.126;5.596;2023-07-29T04:57:01;4.07;;;2.88;;
17564;SDS011;62994;52.126;5.596;2023-07-29T04:59:28;2.70;;;2.60;;
17564;SDS011;62994;52.126;5.596;2023-07-29T05:01:55;3.20;;;3.00;;
17564;SDS011;62994;52.126;5.596;2023-07-29T05:04:26;2.83;;;2.65;;
17564;SDS011;62994;52.126;5.596;2023-07-29T05:06:55;3.08;;;2.88;;
17564;SDS011;62994;52.126;5.596;2023-07-29T05:09:22;3.25;;;2.95;;
17564;SDS011;62994;52.126;5.596;2023-07-29T05:11:49;2.45;;;2.35;;
17564;SDS011;62994;52.126;5.596;2023-07-29T05:14:17;3.42;;;2.60;;
17564;SDS011;62994;52.126;5.596;2023-07-29T05:16:44;2.72;;;2.53;;
17564;SDS011;62994;52.126;5.596;2023-07-29T05:19:11;3.08;;;2.65;;
17564;SDS011;62994;52.126;5.596;2023-07-29T05:21:38;2.42;;;2.22;;
17564;SDS011;62994;52.126;5.596;2023-07-29T05:24:07;2.78;;;2.58;;
17564;SDS011;62994;52.126;5.596;2023-07-29T05:26:34;2.80;;;1.88;;
17564;SDS011;62994;52.126;5.596;2023-07-29T05:29:01;2.45;;;2.35;;
17564;SDS011;62994;52.126;5.596;2023-07-29T05:31:29;2.85;;;2.65;;
17564;SDS011;62994;52.126;5.596;2023-07-29T05:33:56;4.93;;;2.40;;
17564;SDS011;62994;52.126;5.596;2023-07-29T05:36:23;2.88;;;2.78;;
17564;SDS011;62994;52.126;5.596;2023-07-29T05:38:50;3.13;;;2.92;;
17564;SDS011;62994;52.126;5.596;2023-07-29T05:41:19;3.10;;;2.90;;
17564;SDS011;62994;52.126;5.596;2023-07-29T05:43:46;2.60;;;2.50;;
17564;SDS011;62994;52.126;5.596;2023-07-29T05:46:13;2.85;;;2.65;;
17564;SDS011;62994;52.126;5.596;2023-07-29T05:48:45;2.75;;;2.60;;
17564;SDS011;62994;52.126;5.596;2023-07-29T05:51:12;3.33;;;3.13;;
17564;SDS011;62994;52.126;5.596;2023-07-29T05:53:39;3.08;;;2.85;;
17564;SDS011;62994;52.126;5.596;2023-07-29T05:56:06;3.35;;;3.00;;
17564;SDS011;62994;52.126;5.596;2023-07-29T05:58:34;3.00;;;2.88;;
17564;SDS011;62994;52.126;5.596;2023-07-29T06:01:01;4.57;;;3.30;;
17564;SDS011;62994;52.126;5.596;2023-07-29T06:03:28;2.92;;;2.72;;
17564;SDS011;62994;52.126;5.596;2023-07-29T06:05:55;3.72;;;3.40;;
17564;SDS011;62994;52.126;5.596;2023-07-29T06:08:22;3.60;;;3.40;;
17564;SDS011;62994;52.126;5.596;2023-07-29T06:10:49;3.45;;;3.25;;
17564;SDS011;62994;52.126;5.596;2023-07-29T06:13:17;3.80;;;3.50;;
17564;SDS011;62994;52.126;5.596;2023-07-29T06:15:45;3.65;;;3.35;;
17564;SDS011;62994;52.126;5.596;2023-07-29T06:18:12;3.22;;;3.03;;
17564;SDS011;62994;52.126;5.596;2023-07-29T06:20:42;3.40;;;3.20;;
17564;SDS011;62994;52.126;5.596;2023-07-29T06:23:09;4.15;;;3.75;;
17564;SDS011;62994;52.126;5.596;2023-07-29T06:25:36;3.60;;;3.30;;
17564;SDS011;62994;52.126;5.596;2023-07-29T06:28:03;3.17;;;2.88;;
17564;SDS011;62994;52.126;5.596;2023-07-29T06:30:30;4.07;;;3.50;;
17564;SDS011;62994;52.126;5.596;2023-07-29T06:32:58;4.00;;;3.70;;
17564;SDS011;62994;52.126;5.596;2023-07-29T06:35:25;3.92;;;3.63;;
17564;SDS011;62994;52.126;5.596;2023-07-29T06:37:52;3.40;;;3.22;;
17564;SDS011;62994;52.126;5.596;2023-07-29T06:40:19;3.60;;;3.30;;
17564;SDS011;62994;52.126;5.596;2023-07-29T06:42:46;3.80;;;3.60;;
17564;SDS011;62994;52.126;5.596;2023-07-29T06:45:13;3.78;;;3.47;;
17564;SDS011;62994;52.126;5.596;2023-07-29T06:47:41;3.50;;;3.30;;
17564;SDS011;62994;52.126;5.596;2023-07-29T06:50:09;4.20;;;3.90;;
17564;SDS011;62994;52.126;5.596;2023-07-29T06:52:37;4.15;;;3.90;;
17564;SDS011;62994;52.126;5.596;2023-07-29T06:55:05;3.60;;;3.40;;
17564;SDS011;62994;52.126;5.596;2023-07-29T06:57:33;4.90;;;3.60;;
17564;SDS011;62994;52.126;5.596;2023-07-29T07:00:00;4.18;;;3.75;;
17564;SDS011;62994;52.126;5.596;2023-07-29T07:02:28;5.93;;;3.53;;
17564;SDS011;62994;52.126;5.596;2023-07-29T07:04:55;4.03;;;3.75;;
17564;SDS011;62994;52.126;5.596;2023-07-29T07:07:23;5.18;;;4.53;;
17564;SDS011;62994;52.126;5.596;2023-07-29T07:09:50;3.72;;;3.53;;
17564;SDS011;62994;52.126;5.596;2023-07-29T07:12:18;4.70;;;4.38;;
17564;SDS011;62994;52.126;5.596;2023-07-29T07:14:45;4.47;;;4.13;;
17564;SDS011;62994;52.126;5.596;2023-07-29T07:17:12;6.03;;;4.75;;
17564;SDS011;62994;52.126;5.596;2023-07-29T07:19:39;4.78;;;4.50;;
17564;SDS011;62994;52.126;5.596;2023-07-29T07:22:06;5.00;;;4.28;;
17564;SDS011;62994;52.126;5.596;2023-07-29T07:24:34;4.70;;;4.40;;
17564;SDS011;62994;52.126;5.596;2023-07-29T07:27:01;4.22;;;4.03;;
17564;SDS011;62994;52.126;5.596;2023-07-29T07:29:29;5.30;;;4.50;;
17564;SDS011;62994;52.126;5.596;2023-07-29T07:31:56;5.25;;;4.90;;
17564;SDS011;62994;52.126;5.596;2023-07-29T07:34:23;4.95;;;4.65;;
17564;SDS011;62994;52.126;5.596;2023-07-29T07:36:50;4.90;;;4.60;;
17564;SDS011;62994;52.126;5.596;2023-07-29T07:39:17;4.45;;;4.25;;
17564;SDS011;62994;52.126;5.596;2023-07-29T07:41:46;5.03;;;4.72;;
17564;SDS011;62994;52.126;5.596;2023-07-29T07:44:13;5.53;;;5.22;;
17564;SDS011;62994;52.126;5.596;2023-07-29T07:46:42;5.55;;;5.15;;
17564;SDS011;62994;52.126;5.596;2023-07-29T07:49:10;5.80;;;5.50;;
17564;SDS011;62994;52.126;5.596;2023-07-29T07:51:37;5.65;;;5.25;;
17564;SDS011;62994;52.126;5.596;2023-07-29T07:54:05;5.38;;;5.07;;
17564;SDS011;62994;52.126;5.596;2023-07-29T07:56:32;5.10;;;4.72;;
17564;SDS011;62994;52.126;5.596;2023-07-29T07:59:00;4.47;;;4.18;;
17564;SDS011;62994;52.126;5.596;2023-07-29T08:01:28;4.63;;;4.32;;
17564;SDS011;62994;52.126;5.596;2023-07-29T08:04:00;5.10;;;4.72;;
17564;SDS011;62994;52.126;5.596;2023-07-29T08:06:27;4.40;;;4.03;;
17564;SDS011;62994;52.126;5.596;2023-07-29T08:09:00;4.60;;;4.22;;
17564;SDS011;62994;52.126;5.596;2023-07-29T08:11:28;4.70;;;4.40;;
17564;SDS011;62994;52.126;5.596;2023-07-29T08:13:55;4.20;;;3.90;;
17564;SDS011;62994;52.126;5.596;2023-07-29T08:16:25;4.40;;;4.10;;
17564;SDS011;62994;52.126;5.596;2023-07-29T08:18:53;4.03;;;3.83;;
17564;SDS011;62994;52.126;5.596;2023-07-29T08:21:20;3.70;;;3.40;;
17564;SDS011;62994;52.126;5.596;2023-07-29T08:23:47;3.50;;;3.20;;
17564;SDS011;62994;52.126;5.596;2023-07-29T08:26:14;3.40;;;3.20;;
17564;SDS011;62994;52.126;5.596;2023-07-29T08:28:41;3.13;;;3.03;;
17564;SDS011;62994;52.126;5.596;2023-07-29T08:31:09;3.60;;;3.40;;
17564;SDS011;62994;52.126;5.596;2023-07-29T08:33:40;2.97;;;2.80;;
17564;SDS011;62994;52.126;5.596;2023-07-29T08:36:08;3.25;;;3.05;;
17564;SDS011;62994;52.126;5.596;2023-07-29T08:38:37;4.00;;;3.28;;
17564;SDS011;62994;52.126;5.596;2023-07-29T08:41:06;3.35;;;3.15;;
17564;SDS011;62994;52.126;5.596;2023-07-29T08:43:38;3.40;;;3.20;;
17564;SDS011;62994;52.126;5.596;2023-07-29T08:46:09;3.72;;;3.08;;
17564;SDS011;62994;52.126;5.596;2023-07-29T08:48:41;4.47;;;3.10;;
17564;SDS011;62994;52.126;5.596;2023-07-29T08:51:10;2.75;;;2.55;;
17564;SDS011;62994;52.126;5.596;2023-07-29T08:53:38;2.85;;;2.65;;
17564;SDS011;62994;52.126;5.596;2023-07-29T08:56:06;3.05;;;2.80;;
17564;SDS011;62994;52.126;5.596;2023-07-29T08:58:34;4.60;;;2.83;;
17564;SDS011;62994;52.126;5.596;2023-07-29T09:01:01;2.17;;;1.98;;
17564;SDS011;62994;52.126;5.596;2023-07-29T09:03:28;2.10;;;2.00;;
17564;SDS011;62994;52.126;5.596;2023-07-29T09:05:57;2.08;;;1.85;;
17564;SDS011;62994;52.126;5.596;2023-07-29T09:08:24;1.85;;;1.75;;
17564;SDS011;62994;52.126;5.596;2023-07-29T09:10:53;2.20;;;2.10;;
17564;SDS011;62994;52.126;5.596;2023-07-29T09:13:20;1.95;;;1.70;;
17564;SDS011;62994;52.126;5.596;2023-07-29T09:15:48;2.10;;;2.00;;
17564;SDS011;62994;52.126;5.596;2023-07-29T09:18:15;2.10;;;1.98;;
17564;SDS011;62994;52.126;5.596;2023-07-29T09:20:43;2.42;;;2.20;;
17564;SDS011;62994;52.126;5.596;2023-07-29T09:23:14;2.90;;;2.63;;
17564;SDS011;62994;52.126;5.596;2023-07-29T09:25:41;2.67;;;2.50;;
17564;SDS011;62994;52.126;5.596;2023-07-29T09:28:09;2.72;;;2.55;;
17564;SDS011;62994;52.126;5.596;2023-07-29T09:30:37;2.28;;;2.17;;
17564;SDS011;62994;52.126;5.596;2023-07-29T09:33:08;2.42;;;2.28;;
17564;SDS011;62994;52.126;5.596;2023-07-29T09:35:35;4.65;;;3.17;;
17564;SDS011;62994;52.126;5.596;2023-07-29T09:38:04;2.67;;;2.50;;
17564;SDS011;62994;52.126;5.596;2023-07-29T09:40:36;2.70;;;2.60;;
17564;SDS011;62994;52.126;5.596;2023-07-29T09:43:05;2.42;;;2.28;;
17564;SDS011;62994;52.126;5.596;2023-07-29T09:45:33;2.78;;;2.58;;
17564;SDS011;62994;52.126;5.596;2023-07-29T09:48:01;2.75;;;2.55;;
17564;SDS011;62994;52.126;5.596;2023-07-29T09:50:30;3.40;;;2.28;;
17564;SDS011;62994;52.126;5.596;2023-07-29T09:52:57;2.30;;;2.20;;
17564;SDS011;62994;52.126;5.596;2023-07-29T09:55:25;2.70;;;2.50;;
17564;SDS011;62994;52.126;5.596;2023-07-29T09:57:54;2.35;;;2.25;;
17564;SDS011;62994;52.126;5.596;2023-07-29T10:00:26;3.05;;;2.63;;
17564;SDS011;62994;52.126;5.596;2023-07-29T10:02:54;2.50;;;2.40;;
17564;SDS011;62994;52.126;5.596;2023-07-29T10:05:21;3.22;;;2.85;;
17564;SDS011;62994;52.126;5.596;2023-07-29T10:07:49;3.47;;;3.28;;
17564;SDS011;62994;52.126;5.596;2023-07-29T10:10:17;2.10;;;2.10;;
17564;SDS011;62994;52.126;5.596;2023-07-29T10:12:44;2.40;;;2.20;;
17564;SDS011;62994;52.126;5.596;2023-07-29T10:15:13;2.03;;;2.00;;
17564;SDS011;62994;52.126;5.596;2023-07-29T10:17:41;2.30;;;2.08;;
17564;SDS011;62994;52.126;5.596;2023-07-29T10:20:09;2.67;;;1.92;;
17564;SDS011;62994;52.126;5.596;2023-07-29T10:22:37;2.20;;;2.00;;
17564;SDS011;62994;52.126;5.596;2023-07-29T10:25:07;2.15;;;2.05;;
17564;SDS011;62994;52.126;5.596;2023-07-29T10:27:40;1.70;;;1.60;;
17564;SDS011;62994;52.126;5.596;2023-07-29T10:30:10;2.20;;;2.10;;
17564;SDS011;62994;52.126;5.596;2023-07-29T10:32:42;2.22;;;2.13;;
17564;SDS011;62994;52.126;5.596;2023-07-29T10:35:11;2.40;;;2.30;;
17564;SDS011;62994;52.126;5.596;2023-07-29T10:37:38;2.80;;;2.60;;
17564;SDS011;62994;52.126;5.596;2023-07-29T10:40:07;3.13;;;2.90;;
17564;SDS011;62994;52.126;5.596;2023-07-29T10:42:36;3.88;;;2.75;;
17564;SDS011;62994;52.126;5.596;2023-07-29T10:45:18;2.50;;;2.40;;
17564;SDS011;62994;52.126;5.596;2023-07-29T10:47:48;2.95;;;2.75;;
17564;SDS011;62994;52.126;5.596;2023-07-29T10:50:21;2.90;;;2.70;;
17564;SDS011;62994;52.126;5.596;2023-07-29T10:52:49;2.45;;;2.25;;
17564;SDS011;62994;52.126;5.596;2023-07-29T10:55:28;2.28;;;2.17;;
17564;SDS011;62994;52.126;5.596;2023-07-29T10:58:06;1.50;;;1.47;;
17564;SDS011;62994;52.126;5.596;2023-07-29T11:00:35;1.80;;;1.70;;
17564;SDS011;62994;52.126;5.596;2023-07-29T11:03:05;1.73;;;1.63;;
17564;SDS011;62994;52.126;5.596;2023-07-29T11:05:43;1.77;;;1.67;;
17564;SDS011;62994;52.126;5.596;2023-07-29T11:08:18;1.88;;;1.88;;
17564;SDS011;62994;52.126;5.596;2023-07-29T11:11:03;3.92;;;2.00;;
17564;SDS011;62994;52.126;5.596;2023-07-29T11:13:32;1.83;;;1.73;;
17564;SDS011;62994;52.126;5.596;2023-07-29T11:16:00;1.40;;;1.40;;
17564;SDS011;62994;52.126;5.596;2023-07-29T11:18:29;1.77;;;1.70;;
17564;SDS011;62994;52.126;5.596;2023-07-29T11:20:58;1.90;;;1.80;;
17564;SDS011;62994;52.126;5.596;2023-07-29T11:23:30;1.90;;;1.63;;
17564;SDS011;62994;52.126;5.596;2023-07-29T11:25:58;1.80;;;1.70;;
17564;SDS011;62994;52.126;5.596;2023-07-29T11:28:27;1.65;;;1.60;;
17564;SDS011;62994;52.126;5.596;2023-07-29T11:30:55;1.50;;;1.42;;
17564;SDS011;62994;52.126;5.596;2023-07-29T11:33:23;1.80;;;1.70;;
17564;SDS011;62994;52.126;5.596;2023-07-29T11:35:54;1.90;;;1.80;;
17564;SDS011;62994;52.126;5.596;2023-07-29T11:38:22;1.98;;;1.88;;
17564;SDS011;62994;52.126;5.596;2023-07-29T11:40:56;3.05;;;1.80;;
17564;SDS011;62994;52.126;5.596;2023-07-29T11:43:26;2.28;;;1.50;;
17564;SDS011;62994;52.126;5.596;2023-07-29T11:45:53;2.13;;;1.58;;
17564;SDS011;62994;52.126;5.596;2023-07-29T11:48:27;1.55;;;1.45;;
17564;SDS011;62994;52.126;5.596;2023-07-29T11:50:56;1.67;;;1.35;;
17564;SDS011;62994;52.126;5.596;2023-07-29T11:53:25;1.73;;;1.63;;
17564;SDS011;62994;52.126;5.596;2023-07-29T11:55:55;2.67;;;1.40;;
17564;SDS011;62994;52.126;5.596;2023-07-29T11:58:22;2.45;;;1.50;;
17564;SDS011;62994;52.126;5.596;2023-07-29T12:00:53;1.38;;;1.30;;
17564;SDS011;62994;52.126;5.596;2023-07-29T12:03:22;1.63;;;1.52;;
17564;SDS011;62994;52.126;5.596;2023-07-29T12:05:49;2.10;;;1.85;;
17564;SDS011;62994;52.126;5.596;2023-07-29T12:08:18;3.38;;;1.85;;
17564;SDS011;62994;52.126;5.596;2023-07-29T12:10:45;2.15;;;2.05;;
17564;SDS011;62994;52.126;5.596;2023-07-29T12:13:13;4.05;;;2.13;;
17564;SDS011;62994;52.126;5.596;2023-07-29T12:15:40;1.85;;;1.83;;
17564;SDS011;62994;52.126;5.596;2023-07-29T12:18:08;2.10;;;1.95;;
17564;SDS011;62994;52.126;5.596;2023-07-29T12:20:35;1.73;;;1.70;;
17564;SDS011;62994;52.126;5.596;2023-07-29T12:23:03;2.30;;;2.20;;
17564;SDS011;62994;52.126;5.596;2023-07-29T12:25:33;2.00;;;1.90;;
17564;SDS011;62994;52.126;5.596;2023-07-29T12:28:01;1.98;;;1.88;;
17564;SDS011;62994;52.126;5.596;2023-07-29T12:30:29;2.80;;;2.65;;
17564;SDS011;62994;52.126;5.596;2023-07-29T12:32:57;2.30;;;2.20;;
17564;SDS011;62994;52.126;5.596;2023-07-29T12:35:24;2.03;;;1.92;;
17564;SDS011;62994;52.126;5.596;2023-07-29T12:37:59;2.17;;;2.08;;
17564;SDS011;62994;52.126;5.596;2023-07-29T12:40:27;2.35;;;2.08;;
17564;SDS011;62994;52.126;5.596;2023-07-29T12:42:55;2.05;;;1.92;;
17564;SDS011;62994;52.126;5.596;2023-07-29T12:45:23;2.03;;;1.95;;
17564;SDS011;62994;52.126;5.596;2023-07-29T12:47:52;2.58;;;2.20;;
17564;SDS011;62994;52.126;5.596;2023-07-29T12:50:19;2.17;;;1.88;;
17564;SDS011;62994;52.126;5.596;2023-07-29T12:52:47;1.65;;;1.55;;
17564;SDS011;62994;52.126;5.596;2023-07-29T12:55:14;1.75;;;1.70;;
17564;SDS011;62994;52.126;5.596;2023-07-29T12:57:43;2.25;;;1.30;;
17564;SDS011;62994;52.126;5.596;2023-07-29T13:00:12;1.88;;;1.77;;
17564;SDS011;62994;52.126;5.596;2023-07-29T13:02:39;1.25;;;1.25;;
17564;SDS011;62994;52.126;5.596;2023-07-29T13:05:08;1.50;;;1.40;;
17564;SDS011;62994;52.126;5.596;2023-07-29T13:07:36;1.50;;;1.20;;
17564;SDS011;62994;52.126;5.596;2023-07-29T13:10:04;1.30;;;1.30;;
17564;SDS011;62994;52.126;5.596;2023-07-29T13:12:31;1.33;;;1.33;;
17564;SDS011;62994;52.126;5.596;2023-07-29T13:14:59;1.20;;;1.20;;
17564;SDS011;62994;52.126;5.596;2023-07-29T13:17:27;1.00;;;1.00;;
17564;SDS011;62994;52.126;5.596;2023-07-29T13:19:54;1.50;;;1.40;;
17564;SDS011;62994;52.126;5.596;2023-07-29T13:22:28;1.13;;;1.13;;
17564;SDS011;62994;52.126;5.596;2023-07-29T13:24:58;1.30;;;1.30;;
17564;SDS011;62994;52.126;5.596;2023-07-29T13:27:25;1.67;;;1.40;;
17564;SDS011;62994;52.126;5.596;2023-07-29T13:29:53;1.35;;;1.35;;
17564;SDS011;62994;52.126;5.596;2023-07-29T13:32:21;1.70;;;1.60;;
17564;SDS011;62994;52.126;5.596;2023-07-29T13:34:50;1.58;;;1.58;;
17564;SDS011;62994;52.126;5.596;2023-07-29T13:37:20;1.50;;;1.50;;
17564;SDS011;62994;52.126;5.596;2023-07-29T13:39:52;1.65;;;1.65;;
17564;SDS011;62994;52.126;5.596;2023-07-29T13:42:33;1.80;;;1.70;;
17564;SDS011;62994;52.126;5.596;2023-07-29T13:45:00;1.50;;;1.50;;
17564;SDS011;62994;52.126;5.596;2023-07-29T13:47:37;2.75;;;1.85;;
17564;SDS011;62994;52.126;5.596;2023-07-29T13:50:15;2.30;;;2.10;;
17564;SDS011;62994;52.126;5.596;2023-07-29T13:52:50;1.90;;;1.85;;
17564;SDS011;62994;52.126;5.596;2023-07-29T13:55:25;2.22;;;2.20;;
17564;SDS011;62994;52.126;5.596;2023-07-29T13:57:57;2.85;;;1.88;;
17564;SDS011;62994;52.126;5.596;2023-07-29T14:00:25;2.88;;;2.33;;
17564;SDS011;62994;52.126;5.596;2023-07-29T14:02:54;3.35;;;2.33;;
17564;SDS011;62994;52.126;5.596;2023-07-29T14:05:25;2.58;;;2.47;;
17564;SDS011;62994;52.126;5.596;2023-07-29T14:07:53;2.88;;;2.30;;
17564;SDS011;62994;52.126;5.596;2023-07-29T14:10:21;2.55;;;2.30;;
17564;SDS011;62994;52.126;5.596;2023-07-29T14:12:53;2.40;;;2.20;;
17564;SDS011;62994;52.126;5.596;2023-07-29T14:15:38;3.40;;;2.58;;
17564;SDS011;62994;52.126;5.596;2023-07-29T14:18:17;2.60;;;2.50;;
17564;SDS011;62994;52.126;5.596;2023-07-29T14:20:52;2.50;;;2.40;;
17564;SDS011;62994;52.126;5.596;2023-07-29T14:23:24;2.00;;;1.98;;
17564;SDS011;62994;52.126;5.596;2023-07-29T14:26:01;2.35;;;2.25;;
17564;SDS011;62994;52.126;5.596;2023-07-29T14:28:37;2.15;;;2.05;;
17564;SDS011;62994;52.126;5.596;2023-07-29T14:31:09;2.25;;;2.15;;
17564;SDS011;62994;52.126;5.596;2023-07-29T14:33:39;2.40;;;2.30;;
17564;SDS011;62994;52.126;5.596;2023-07-29T14:36:15;2.25;;;2.15;;
17564;SDS011;62994;52.126;5.596;2023-07-29T14:38:52;2.10;;;2.00;;
17564;SDS011;62994;52.126;5.596;2023-07-29T14:41:25;2.35;;;2.25;;
17564;SDS011;62994;52.126;5.596;2023-07-29T14:44:23;2.50;;;2.05;;
17564;SDS011;62994;52.126;5.596;2023-07-29T14:46:54;2.08;;;2.00;;
17564;SDS011;62994;52.126;5.596;2023-07-29T14:49:22;1.42;;;1.40;;
17564;SDS011;62994;52.126;5.596;2023-07-29T14:52:15;1.60;;;1.60;;
17564;SDS011;62994;52.126;5.596;2023-07-29T14:54:47;1.60;;;1.50;;
17564;SDS011;62994;52.126;5.596;2023-07-29T14:57:15;1.38;;;1.38;;